createdAt,value
2024-03-05T00:00:56.527Z,42.60
2024-03-05T00:03:23.681Z,41.77
2024-03-05T00:05:50.833Z,39.03
2024-03-05T00:08:18.212Z,40.20
2024-03-05T00:10:45.200Z,39.33
2024-03-05T00:13:14.103Z,43.00
2024-03-05T00:15:41.248Z,43.53
2024-03-05T00:18:08.231Z,42.40
2024-03-05T00:20:35.262Z,36.33
2024-03-05T00:23:02.193Z,39.60
2024-03-05T00:25:29.147Z,40.43
2024-03-05T00:27:56.096Z,42.07
2024-03-05T00:30:23.498Z,41.07
2024-03-05T00:32:50.658Z,40.03
2024-03-05T00:35:17.848Z,39.27
2024-03-05T00:37:45.017Z,41.03
2024-03-05T00:40:13.271Z,41.53
2024-03-05T00:42:40.729Z,39.67
2024-03-05T00:45:09.101Z,41.83
2024-03-05T00:47:37.636Z,36.90
2024-03-05T00:50:08.441Z,40.03
2024-03-05T00:52:35.582Z,39.70
2024-03-05T00:55:02.640Z,36.80
2024-03-05T00:57:30.175Z,43.30
2024-03-05T00:59:57.374Z,39.87
2024-03-05T01:02:24.708Z,41.70
2024-03-05T01:04:54.303Z,41.83
2024-03-05T01:07:21.690Z,38.70
2024-03-05T01:09:50.285Z,38.20
2024-03-05T01:12:17.733Z,40.53
2024-03-05T01:14:45.738Z,41.63
2024-03-05T01:17:13.828Z,42.37
2024-03-05T01:19:41.051Z,43.63
2024-03-05T01:22:08.013Z,44.07
2024-03-05T01:24:34.936Z,40.63
2024-03-05T01:27:01.868Z,40.77
2024-03-05T01:29:28.844Z,42.73
2024-03-05T01:32:00.586Z,38.47
2024-03-05T01:34:27.721Z,42.07
2024-03-05T01:36:58.419Z,39.70
2024-03-05T01:39:29.734Z,41.47
2024-03-05T01:41:58.035Z,36.53
2024-03-05T01:44:25.764Z,42.07
2024-03-05T01:46:57.249Z,39.23
2024-03-05T01:49:25.569Z,34.47
2024-03-05T01:51:55.573Z,37.53
2024-03-05T01:54:23.630Z,38.40
2024-03-05T01:56:55.388Z,40.23
2024-03-05T01:59:23.178Z,39.60
2024-03-05T02:01:51.793Z,37.77
2024-03-05T02:04:19.057Z,42.50
2024-03-05T02:06:47.637Z,42.43
2024-03-05T03:48:12.136Z,47.03
2024-03-05T03:50:39.055Z,40.97
2024-03-05T03:53:07.090Z,42.97
2024-03-05T03:55:34.755Z,45.23
2024-03-05T03:58:02.174Z,45.27
2024-03-05T04:00:30.463Z,42.63
2024-03-05T04:02:57.456Z,42.17
2024-03-05T04:05:24.897Z,41.17
2024-03-05T04:07:52.238Z,47.97
2024-03-05T04:10:19.262Z,42.20
2024-03-05T04:12:46.366Z,43.53
2024-03-05T04:15:13.700Z,43.47
2024-03-05T04:17:41.173Z,41.13
2024-03-05T04:20:10.581Z,41.43
2024-03-05T04:22:41.340Z,40.70
2024-03-05T04:25:08.984Z,41.23
2024-03-05T04:27:42.585Z,42.77
2024-03-05T04:30:13.375Z,40.30
2024-03-05T04:32:56.246Z,42.27
2024-03-05T04:35:26.582Z,40.60
2024-03-05T04:37:53.495Z,39.87
2024-03-05T04:40:20.546Z,46.07
2024-03-05T04:42:49.006Z,42.43
2024-03-05T04:45:16.892Z,43.40
2024-03-05T04:47:44.087Z,44.57
2024-03-05T04:50:11.067Z,43.67
2024-03-05T04:52:38.044Z,41.97
2024-03-05T04:55:06.715Z,42.50
2024-03-05T04:57:34.056Z,44.70
2024-03-05T05:00:00.965Z,39.23
2024-03-05T05:02:27.829Z,42.13
2024-03-05T05:04:54.834Z,41.50
2024-03-05T05:07:25.186Z,45.43
2024-03-05T05:09:52.300Z,42.67
2024-03-05T05:12:19.217Z,43.20
2024-03-05T05:14:46.107Z,46.70
2024-03-05T05:17:14.833Z,44.67
2024-03-05T05:19:42.339Z,45.03
2024-03-05T05:22:09.299Z,43.73
2024-03-05T05:24:37.771Z,42.70
2024-03-05T05:27:05.446Z,41.17
2024-03-05T05:29:40.226Z,42.53
2024-03-05T05:32:09.454Z,44.03
2024-03-05T05:34:38.638Z,38.97
2024-03-05T05:37:06.178Z,39.67
2024-03-05T05:39:33.745Z,46.97
2024-03-05T05:42:00.783Z,43.47
2024-03-05T05:44:27.680Z,44.60
2024-03-05T05:46:55.427Z,42.20
2024-03-05T05:49:22.840Z,43.83
2024-03-05T05:51:50.373Z,48.23
2024-03-05T05:54:19.826Z,43.70
2024-03-05T05:56:50.098Z,43.27
2024-03-05T05:59:18.605Z,47.43
2024-03-05T06:01:46.313Z,44.40
2024-03-05T06:04:14.165Z,46.83
2024-03-05T06:06:41.148Z,47.23
2024-03-05T06:09:11.147Z,49.23
2024-03-05T06:11:39.266Z,47.93
2024-03-05T06:14:07.749Z,59.77
2024-03-05T06:16:35.125Z,57.00
2024-03-05T06:19:02.306Z,49.97
2024-03-05T06:21:29.393Z,49.97
2024-03-05T06:23:56.347Z,47.50
2024-03-05T06:26:23.463Z,48.50
2024-03-05T06:28:50.372Z,48.00
2024-03-05T06:31:17.476Z,49.50
2024-03-05T06:33:45.305Z,45.60
2024-03-05T06:36:13.250Z,49.20
2024-03-05T06:38:40.400Z,52.17
2024-03-05T06:41:07.613Z,49.53
2024-03-05T06:43:37.724Z,44.43
2024-03-05T06:46:05.583Z,46.97
2024-03-05T06:48:34.510Z,52.60
2024-03-05T06:51:04.846Z,50.10
2024-03-05T06:53:50.727Z,45.90
2024-03-05T06:56:36.147Z,49.63
2024-03-05T06:59:04.898Z,46.93
2024-03-05T07:01:33.349Z,49.70
2024-03-05T07:04:00.616Z,43.47
2024-03-05T07:06:27.511Z,49.37
2024-03-05T07:08:56.365Z,46.50
2024-03-05T07:11:25.881Z,49.17
2024-03-05T07:13:52.899Z,43.70
2024-03-05T07:16:21.159Z,41.70
2024-03-05T07:18:52.166Z,42.37
2024-03-05T07:21:21.973Z,40.30
2024-03-05T07:23:54.716Z,39.13
2024-03-05T07:26:22.809Z,37.83
2024-03-05T07:28:49.952Z,41.20
2024-03-05T07:31:18.694Z,41.37
2024-03-05T07:33:49.210Z,43.43
2024-03-05T07:36:19.227Z,38.80
2024-03-05T07:38:46.317Z,38.43
2024-03-05T07:41:21.584Z,40.63
2024-03-05T07:43:53.728Z,40.73
2024-03-05T07:46:20.867Z,39.17
2024-03-05T07:48:47.940Z,40.20
2024-03-05T07:51:21.625Z,34.97
2024-03-05T07:53:52.759Z,33.30
2024-03-05T07:56:19.746Z,39.97
2024-03-05T07:58:46.864Z,39.77
2024-03-05T08:01:13.799Z,39.93
2024-03-05T08:03:42.369Z,42.40
2024-03-05T08:06:09.481Z,38.53
2024-03-05T08:08:36.341Z,38.63
2024-03-05T08:11:03.454Z,41.80
2024-03-05T08:13:30.440Z,40.53
2024-03-05T08:15:57.419Z,44.90
2024-03-05T08:18:24.339Z,40.83
2024-03-05T08:20:52.025Z,42.87
2024-03-05T08:23:19.044Z,38.40
2024-03-05T08:25:49.540Z,40.53
2024-03-05T08:28:16.505Z,37.03
2024-03-05T08:30:43.874Z,41.40
2024-03-05T08:33:11.184Z,37.27
2024-03-05T08:35:38.310Z,43.03
2024-03-05T08:38:05.751Z,40.93
2024-03-05T08:40:34.594Z,38.30
2024-03-05T08:43:04.880Z,40.83
2024-03-05T08:45:32.654Z,42.77
2024-03-05T08:47:59.819Z,42.70
2024-03-05T08:50:30.116Z,43.30
2024-03-05T08:52:59.590Z,40.90
2024-03-05T08:55:27.475Z,41.90
2024-03-05T08:57:55.716Z,37.83
2024-03-05T09:00:33.357Z,40.50
2024-03-05T09:03:10.482Z,43.90
2024-03-05T09:05:37.874Z,42.53
2024-03-05T09:08:06.652Z,47.97
2024-03-05T09:10:35.286Z,41.40
2024-03-05T09:13:02.958Z,39.00
2024-03-05T09:15:31.060Z,41.73
2024-03-05T09:17:58.349Z,40.37
2024-03-05T09:20:25.266Z,42.27
2024-03-05T09:22:52.230Z,38.07
2024-03-05T09:25:19.366Z,39.40
2024-03-05T09:27:46.751Z,38.10
2024-03-05T09:30:19.405Z,37.33
2024-03-05T09:32:47.657Z,38.87
2024-03-05T09:35:16.430Z,39.13
2024-03-05T09:37:46.989Z,35.30
2024-03-05T09:40:20.621Z,37.63
2024-03-05T09:42:48.510Z,34.30
2024-03-05T09:45:19.018Z,36.40
2024-03-05T09:47:50.699Z,37.93
2024-03-05T09:50:18.775Z,34.80
2024-03-05T09:52:48.088Z,32.87
2024-03-05T09:55:18.464Z,33.83
2024-03-05T09:57:50.007Z,36.87
2024-03-05T10:00:20.528Z,33.53
2024-03-05T10:02:56.525Z,33.13
2024-03-05T10:05:23.789Z,36.30
2024-03-05T10:07:51.060Z,34.80
2024-03-05T10:10:23.226Z,37.63
2024-03-05T10:12:53.695Z,33.90
2024-03-05T10:15:24.170Z,41.03
2024-03-05T10:17:54.154Z,37.67
2024-03-05T10:20:27.255Z,40.90
2024-03-05T10:22:59.940Z,35.67
2024-03-05T10:25:29.266Z,38.97
2024-03-05T10:27:57.150Z,41.80
2024-03-05T10:30:26.086Z,41.87
2024-03-05T10:33:00.605Z,43.83
2024-03-05T10:35:30.350Z,43.40
2024-03-05T10:38:13.504Z,44.80
2024-03-05T10:40:45.876Z,45.63
2024-03-05T10:43:17.701Z,40.93
2024-03-05T10:45:46.205Z,42.73
2024-03-05T10:48:16.630Z,39.23
2024-03-05T10:50:49.816Z,38.67
2024-03-05T10:53:17.946Z,42.23
2024-03-05T10:55:48.910Z,43.33
2024-03-05T10:58:18.691Z,42.90
2024-03-05T11:00:47.601Z,43.10
2024-03-05T11:03:18.996Z,44.00
2024-03-05T11:05:54.966Z,43.17
2024-03-05T11:08:28.815Z,43.87
2024-03-05T11:11:14.250Z,38.17
2024-03-05T11:13:42.328Z,37.30
2024-03-05T11:16:10.058Z,42.60
2024-03-05T11:18:39.001Z,38.97
2024-03-05T11:21:18.722Z,36.57
2024-03-05T11:23:51.720Z,34.30
2024-03-05T11:26:23.303Z,37.13
2024-03-05T11:28:54.197Z,37.03
2024-03-05T11:31:22.218Z,35.97
2024-03-05T11:34:14.072Z,34.03
2024-03-05T11:36:41.500Z,32.30
2024-03-05T11:39:15.356Z,29.40
2024-03-05T11:41:44.548Z,25.87
2024-03-05T11:44:44.460Z,29.77
2024-03-05T11:47:11.579Z,30.07
2024-03-05T11:49:39.179Z,26.30
2024-03-05T11:52:07.006Z,26.87
2024-03-05T11:54:34.502Z,23.83
2024-03-05T11:57:02.229Z,27.33
2024-03-05T11:59:41.965Z,26.00
2024-03-05T12:02:16.496Z,23.93
2024-03-05T12:04:45.390Z,25.90
2024-03-05T12:07:16.048Z,25.00
2024-03-05T12:09:42.922Z,24.57
2024-03-05T12:12:15.406Z,23.87
2024-03-05T12:14:51.806Z,23.83
2024-03-05T12:17:20.956Z,23.60
2024-03-05T12:20:11.691Z,23.70
2024-03-05T12:22:41.413Z,22.47
2024-03-05T12:25:09.754Z,23.10
2024-03-05T12:27:38.515Z,22.37
2024-03-05T12:30:08.172Z,22.87
2024-03-05T12:32:37.663Z,23.40
2024-03-05T12:35:06.461Z,23.73
2024-03-05T12:37:35.447Z,21.67
2024-03-05T12:40:08.218Z,27.20
2024-03-05T12:42:35.291Z,23.33
2024-03-05T12:45:10.536Z,23.93
2024-03-05T12:47:38.731Z,24.37
2024-03-05T12:50:08.774Z,19.70
2024-03-05T12:52:36.580Z,20.43
2024-03-05T12:55:08.757Z,21.43
2024-03-05T12:57:36.157Z,22.87
2024-03-05T13:00:11.360Z,21.97
2024-03-05T13:02:39.530Z,22.63
2024-03-05T13:05:09.377Z,21.27
2024-03-05T13:07:36.752Z,19.63
2024-03-05T13:10:11.968Z,18.17
2024-03-05T13:12:39.985Z,18.03
2024-03-05T13:15:07.748Z,20.50
2024-03-05T13:17:34.905Z,20.73
2024-03-05T13:20:01.931Z,21.33
2024-03-05T13:22:28.911Z,19.40
2024-03-05T13:24:56.270Z,20.03
2024-03-05T13:27:24.911Z,21.63
2024-03-05T13:30:01.074Z,21.60
2024-03-05T13:32:32.716Z,19.30
2024-03-05T13:34:59.718Z,22.10
2024-03-05T13:37:26.670Z,32.80
2024-03-05T13:39:53.568Z,23.93
2024-03-05T13:42:20.588Z,21.80
2024-03-05T13:44:47.648Z,29.87
2024-03-05T13:47:14.780Z,27.53
2024-03-05T13:49:42.844Z,26.23
2024-03-05T13:52:10.072Z,24.13
2024-03-05T13:54:38.561Z,25.27
2024-03-05T13:57:05.889Z,24.50
2024-03-05T13:59:33.004Z,30.63
2024-03-05T14:02:01.125Z,26.37
2024-03-05T14:04:28.216Z,24.10
2024-03-05T14:06:55.216Z,20.93
2024-03-05T14:09:22.251Z,26.37
2024-03-05T14:11:49.227Z,23.87
2024-03-05T14:14:21.246Z,23.87
2024-03-05T14:16:48.691Z,24.33
2024-03-05T14:19:15.745Z,23.47
2024-03-05T14:21:42.655Z,23.97
2024-03-05T14:24:13.751Z,23.17
2024-03-05T14:26:42.707Z,25.67
2024-03-05T14:29:09.955Z,23.77
2024-03-05T14:31:38.038Z,22.50
2024-03-05T14:34:05.445Z,22.90
2024-03-05T14:36:32.889Z,22.90
2024-03-05T14:39:02.754Z,25.27
2024-03-05T14:41:29.676Z,23.40
2024-03-05T14:43:56.732Z,24.40
2024-03-05T14:46:25.875Z,22.47
2024-03-05T14:48:52.817Z,22.93
2024-03-05T14:51:19.910Z,22.57
2024-03-05T14:53:47.849Z,22.30
2024-03-05T14:56:14.880Z,21.97
2024-03-05T14:58:41.859Z,20.97
2024-03-05T15:01:08.843Z,20.27
2024-03-05T15:03:35.752Z,21.77
2024-03-05T15:06:03.674Z,21.53
2024-03-05T15:08:30.644Z,21.77
2024-03-05T15:10:58.324Z,19.77
2024-03-05T15:13:25.418Z,21.60
2024-03-05T15:15:52.365Z,24.07
2024-03-05T15:18:21.148Z,23.13
2024-03-05T15:20:48.085Z,20.27
2024-03-05T15:23:15.117Z,22.60
2024-03-05T15:25:42.106Z,20.43
2024-03-05T15:28:10.221Z,24.10
2024-03-05T15:30:37.451Z,21.33
2024-03-05T15:33:10.885Z,24.00
2024-03-05T15:35:37.985Z,22.23
2024-03-05T15:38:06.644Z,20.87
2024-03-05T15:40:34.650Z,25.73
2024-03-05T15:43:06.411Z,21.87
2024-03-05T15:45:35.047Z,22.33
2024-03-05T15:48:02.033Z,20.73
2024-03-05T15:50:32.024Z,21.43
2024-03-05T15:53:00.808Z,21.67
2024-03-05T15:55:29.587Z,22.80
2024-03-05T15:58:09.117Z,22.17
2024-03-05T16:00:38.398Z,23.03
2024-03-05T16:03:08.375Z,21.47
2024-03-05T16:05:47.762Z,20.07
2024-03-05T16:08:24.976Z,22.97
2024-03-05T16:10:53.279Z,23.63
2024-03-05T16:13:21.388Z,25.53
2024-03-05T16:15:49.220Z,25.60
2024-03-05T16:18:16.708Z,22.87
2024-03-05T16:20:44.103Z,19.90
2024-03-05T16:23:11.852Z,19.30
2024-03-05T16:25:41.241Z,19.53
2024-03-05T16:28:14.881Z,20.10
2024-03-05T16:30:42.256Z,22.27
2024-03-05T16:33:10.398Z,22.00
2024-03-05T16:35:37.627Z,23.10
2024-03-05T16:38:06.143Z,24.40
2024-03-05T16:40:37.141Z,23.27
2024-03-05T16:43:06.287Z,19.87
2024-03-05T16:45:34.897Z,20.13
2024-03-05T16:48:02.381Z,20.53
2024-03-05T16:50:30.917Z,20.90
2024-03-05T16:52:59.190Z,19.87
2024-03-05T16:55:28.166Z,20.77
2024-03-05T16:57:59.860Z,20.33
2024-03-05T17:00:34.462Z,16.10
2024-03-05T17:03:07.365Z,15.53
2024-03-05T17:05:37.920Z,15.20
2024-03-05T17:08:08.011Z,14.87
2024-03-05T17:10:35.278Z,19.40
2024-03-05T17:13:07.173Z,14.10
2024-03-05T17:15:39.377Z,15.70
2024-03-05T17:18:07.243Z,15.97
2024-03-05T17:20:34.922Z,14.90
2024-03-05T17:23:05.580Z,15.00
2024-03-05T17:25:37.984Z,13.53
2024-03-05T17:28:09.399Z,13.57
2024-03-05T17:30:39.151Z,13.43
2024-03-05T17:33:13.900Z,16.87
2024-03-05T17:35:42.602Z,15.07
2024-03-05T17:38:11.374Z,15.57
2024-03-05T17:40:39.171Z,14.53
2024-03-05T17:43:06.272Z,14.27
2024-03-05T17:45:33.365Z,14.17
2024-03-05T17:48:06.816Z,14.13
2024-03-05T17:50:37.916Z,12.47
2024-03-05T17:53:06.836Z,13.80
2024-03-05T17:55:35.790Z,13.13
2024-03-05T17:58:05.207Z,10.97
2024-03-05T18:00:42.862Z,10.27
2024-03-05T18:03:12.259Z,10.73
2024-03-05T18:05:40.458Z,10.97
2024-03-05T18:08:08.447Z,11.60
2024-03-05T18:10:38.349Z,10.33
2024-03-05T18:13:07.475Z,11.80
2024-03-05T18:15:35.349Z,12.03
2024-03-05T18:18:03.016Z,12.73
2024-03-05T18:20:30.509Z,10.13
2024-03-05T18:23:01.284Z,11.70
2024-03-05T18:25:35.235Z,10.70
2024-03-05T18:28:03.730Z,12.47
2024-03-05T18:30:39.195Z,10.20
2024-03-05T18:33:08.507Z,12.27
2024-03-05T18:35:37.078Z,11.60
2024-03-05T18:38:16.483Z,12.03
2024-03-05T18:40:51.801Z,12.10
2024-03-05T18:43:20.593Z,11.67
2024-03-05T18:45:48.406Z,12.20
2024-03-05T18:48:16.322Z,13.27
2024-03-05T18:50:44.360Z,11.70
2024-03-05T18:53:12.973Z,11.30
2024-03-05T18:55:40.294Z,13.63
2024-03-05T18:58:09.123Z,14.00
2024-03-05T19:00:39.533Z,14.27
2024-03-05T19:03:06.929Z,11.80
2024-03-05T19:05:37.790Z,13.57
2024-03-05T19:08:06.833Z,13.13
2024-03-05T19:10:34.384Z,11.77
2024-03-05T19:13:03.254Z,13.47
2024-03-05T19:15:30.674Z,14.77
2024-03-05T19:17:58.437Z,12.57
2024-03-05T19:20:26.711Z,13.47
2024-03-05T19:22:53.938Z,13.40
2024-03-05T19:25:22.073Z,13.63
2024-03-05T19:27:49.146Z,11.77
2024-03-05T19:30:19.013Z,14.63
2024-03-05T19:32:47.387Z,12.53
2024-03-05T19:35:18.061Z,15.30
2024-03-05T19:37:48.601Z,14.27
2024-03-05T19:40:17.641Z,14.93
2024-03-05T19:42:47.958Z,12.97
2024-03-05T19:45:15.175Z,14.27
2024-03-05T19:47:42.765Z,15.27
2024-03-05T19:50:14.742Z,14.47
2024-03-05T19:52:42.518Z,13.90
2024-03-05T19:55:10.366Z,13.07
2024-03-05T19:57:38.290Z,13.87
2024-03-05T20:00:13.066Z,14.00
2024-03-05T20:02:41.551Z,12.83
2024-03-05T20:05:09.368Z,14.63
2024-03-05T20:07:36.487Z,13.10
2024-03-05T20:10:04.696Z,13.07
2024-03-05T20:12:32.222Z,13.73
2024-03-05T20:14:59.268Z,13.73
2024-03-05T20:17:27.637Z,13.30
2024-03-05T20:19:54.955Z,13.90
2024-03-05T20:22:25.946Z,12.80
2024-03-05T20:24:59.945Z,13.83
2024-03-05T20:27:29.100Z,11.17
2024-03-05T20:29:56.936Z,13.73
2024-03-05T20:32:26.246Z,14.73
2024-03-05T20:34:53.286Z,13.23
2024-03-05T20:37:21.643Z,13.13
2024-03-05T20:39:50.786Z,14.10
2024-03-05T20:42:17.776Z,12.90
2024-03-05T20:44:45.113Z,12.13
2024-03-05T20:47:12.992Z,14.13
2024-03-05T20:49:41.421Z,12.60
2024-03-05T20:52:08.429Z,14.53
2024-03-05T20:54:35.276Z,11.80
2024-03-05T20:57:02.203Z,14.07
2024-03-05T20:59:33.377Z,14.30
2024-03-05T21:02:10.034Z,12.73
2024-03-05T21:04:37.818Z,14.73
2024-03-05T21:07:08.061Z,13.80
2024-03-05T21:09:35.089Z,14.17
2024-03-05T21:12:02.187Z,13.93
2024-03-05T21:14:29.138Z,11.70
2024-03-05T21:16:56.408Z,12.70
2024-03-05T21:19:27.403Z,13.37
2024-03-05T21:21:54.725Z,11.73
2024-03-05T21:24:24.163Z,14.37
2024-03-05T21:29:21.344Z,14.60
2024-03-05T21:31:48.432Z,13.93
2024-03-05T21:34:15.620Z,14.30
2024-03-05T21:36:42.830Z,13.80
2024-03-05T21:39:10.291Z,13.47
2024-03-05T21:41:37.249Z,15.10
2024-03-05T21:44:04.411Z,15.20
2024-03-05T21:46:31.625Z,15.63
2024-03-05T21:48:58.793Z,16.87
2024-03-05T21:51:25.689Z,17.10
2024-03-05T21:53:52.862Z,17.73
2024-03-05T21:56:21.874Z,18.30
2024-03-05T21:58:48.805Z,15.20
2024-03-05T22:01:15.710Z,16.93
2024-03-05T22:03:42.663Z,17.17
2024-03-05T22:06:15.493Z,15.57
2024-03-05T22:08:47.221Z,14.03
2024-03-05T22:11:15.413Z,15.93
2024-03-05T22:13:42.532Z,14.90
2024-03-05T22:16:09.674Z,15.23
2024-03-05T22:18:37.499Z,15.07
2024-03-05T22:21:04.933Z,15.47
2024-03-05T22:23:31.893Z,15.67
2024-03-05T22:25:58.818Z,15.73
2024-03-05T22:28:25.784Z,14.97
2024-03-05T22:30:54.316Z,15.60
2024-03-05T22:33:21.213Z,14.77
2024-03-05T22:35:48.174Z,17.40
2024-03-05T22:38:15.129Z,15.67
2024-03-05T22:40:42.772Z,16.00
2024-03-05T22:43:11.473Z,19.47
2024-03-05T22:45:38.729Z,15.77
2024-03-05T22:48:06.248Z,15.93
2024-03-05T22:50:33.146Z,16.07
2024-03-05T22:53:00.132Z,15.70
2024-03-05T22:55:27.053Z,16.87
2024-03-05T22:57:55.096Z,16.00
2024-03-05T23:00:25.924Z,18.40
2024-03-05T23:02:53.117Z,18.87
2024-03-05T23:05:23.166Z,17.50
2024-03-05T23:07:52.227Z,16.20
2024-03-05T23:10:19.385Z,18.33
2024-03-05T23:12:46.299Z,15.83
2024-03-05T23:15:16.672Z,15.03
2024-03-05T23:17:44.633Z,18.77
2024-03-05T23:20:12.940Z,16.13
2024-03-05T23:22:40.616Z,13.80
2024-03-05T23:25:09.945Z,15.93
2024-03-05T23:27:38.043Z,19.30
2024-03-05T23:30:05.758Z,19.03
2024-03-05T23:32:33.414Z,18.13
2024-03-05T23:35:00.867Z,19.60
2024-03-05T23:37:27.850Z,18.17
2024-03-05T23:39:55.195Z,21.00
2024-03-05T23:42:22.214Z,18.23
2024-03-05T23:44:49.223Z,19.57
2024-03-05T23:47:16.371Z,17.83
2024-03-05T23:49:44.785Z,19.57
2024-03-05T23:52:11.717Z,17.27
2024-03-05T23:54:38.610Z,19.77
2024-03-05T23:57:05.579Z,17.97
2024-03-05T23:59:32.477Z,18.90
